Aérodrome :
LOGIN :

S'inscrire | Disclaimer

   EN    FR    IT 

 










Légende :    VFR   VFR Marginal   IFR   IFR Intensif   IFR Très Intensif
Visi : 
Plafond : 
>= 8 km
>= 3000ft
5 à 8 km
1000 à 3000 ft
1500m à 5 km
500 à 1000 ft
800 à 1500m
200 à 500 ft
< 800m
< 200 ft
Symboles :   Orages  Brouillard  Fortes neiges  Fortes précipitations  Vent > 20 kt
SIGMETs :   Divers  Orages  Givrage  Turbulence  Onde Orograph.  Cendres Volcan.







- Altitude de l'aérodrome : 3006 ft
- Code IATA : LEN


LELN - Leon

DERNIER METAR :
  • 142030Z AUTO 11006KT 080V140 9999 NCD 21/11 Q1023

METARs EXPIRÉS :
  • 142000Z AUTO 12006KT 080V140 9999 NCD 22/11 Q1022
  • 141930Z AUTO 21003KT 170V280 9999 NCD 23/09 Q1021
  • 141900Z 21006KT CAVOK 25/08 Q1021
  • 141830Z 21007KT CAVOK 26/08 Q1021
  • 141800Z 19004KT 140V230 CAVOK 27/08 Q1021

TAF TAF LELN
Valide du 14 à 18h jusqu'au 15 à 03h UTC


141700Z 1418/1503 VRB04KT CAVOK
Pas de NOTAMs connus pour ce terrain.



MET'MAP, la Météo Aéronautique d'un coup d'oeil ! - Copyright ORBIFLY Décembre 2007 - Disclaimer

ORBIFLY MET'MAP TEAM :

Programmation & Développement : Alexandra Zaïnal
Conception & Développement : Baudouin d'Aumeries
Co-Programmation & Développement : Marc-Olivier Méhu
Soutien technique & logistique : Manuel Goepfert

Contact : metmap@orbifly.com




SOURCES & CREDITS :

   NOAA